createdAt,value
2018-02-27T00:00:44.016Z,-2.00
2018-02-27T00:03:12.545Z,-2.10
2018-02-27T00:05:40.837Z,-2.20
2018-02-27T00:08:09.398Z,-2.20
2018-02-27T00:10:37.688Z,-2.10
2018-02-27T00:13:05.994Z,-2.20
2018-02-27T00:15:34.533Z,-2.10
2018-02-27T00:18:03.060Z,-2.20
2018-02-27T00:20:31.602Z,-2.10
2018-02-27T00:22:59.962Z,-2.10
2018-02-27T00:25:28.516Z,-2.20
2018-02-27T00:27:57.081Z,-2.20
2018-02-27T00:30:26.361Z,-2.20
2018-02-27T00:32:54.912Z,-2.30
2018-02-27T00:35:23.192Z,-2.20
2018-02-27T00:37:51.712Z,-2.20
2018-02-27T00:40:20.446Z,-2.30
2018-02-27T00:42:48.734Z,-2.30
2018-02-27T00:45:17.015Z,-2.30
2018-02-27T00:47:45.551Z,-2.30
2018-02-27T00:50:14.101Z,-2.20
2018-02-27T00:52:42.639Z,-2.30
2018-02-27T00:55:11.179Z,-2.30
2018-02-27T00:57:39.705Z,-2.30
2018-02-27T01:00:08.260Z,-2.40
2018-02-27T01:02:37.294Z,-2.30
2018-02-27T01:05:05.556Z,-2.30
2018-02-27T01:07:34.107Z,-2.30
2018-02-27T01:10:02.707Z,-2.40
2018-02-27T01:12:31.230Z,-2.40
2018-02-27T01:15:00.556Z,-2.50
2018-02-27T01:17:28.831Z,-2.50
2018-02-27T01:19:57.375Z,-2.40
2018-02-27T01:22:25.621Z,-2.40
2018-02-27T01:24:54.189Z,-2.40
2018-02-27T01:27:22.710Z,-2.40
2018-02-27T01:29:50.992Z,-2.40
2018-02-27T01:32:19.509Z,-2.40
2018-02-27T01:34:48.028Z,-2.40
2018-02-27T01:37:16.559Z,-2.50
2018-02-27T01:39:45.122Z,-2.40
2018-02-27T01:42:14.011Z,-2.50
2018-02-27T01:44:42.269Z,-2.50
2018-02-27T01:47:11.568Z,-2.50
2018-02-27T01:49:39.827Z,-2.50
2018-02-27T01:52:08.084Z,-2.60
2018-02-27T01:54:38.361Z,-2.60
2018-02-27T01:57:06.885Z,-2.60
2018-02-27T01:59:35.427Z,-2.60
2018-02-27T02:02:03.982Z,-2.60
2018-02-27T02:04:32.519Z,-2.70
2018-02-27T02:07:01.843Z,-2.70
2018-02-27T02:09:30.360Z,-2.70
2018-02-27T02:11:58.915Z,-2.80
2018-02-27T02:14:27.445Z,-2.80
2018-02-27T02:16:55.976Z,-2.80
2018-02-27T02:19:24.512Z,-2.80
2018-02-27T02:21:53.035Z,-2.80
2018-02-27T02:24:24.482Z,-2.70
2018-02-27T02:26:52.740Z,-2.80
2018-02-27T02:29:21.477Z,-2.80
2018-02-27T02:31:50.008Z,-2.80
2018-02-27T02:34:19.044Z,-2.80
2018-02-27T02:36:47.583Z,-2.90
2018-02-27T02:39:16.115Z,-2.80
2018-02-27T02:41:44.087Z,-2.80
2018-02-27T02:44:12.608Z,-2.80
2018-02-27T02:46:40.912Z,-2.80
2018-02-27T02:49:09.442Z,-2.80
2018-02-27T02:51:37.980Z,-2.80
2018-02-27T02:54:06.228Z,-2.80
2018-02-27T02:56:35.583Z,-2.80
2018-02-27T02:59:03.853Z,-2.80
2018-02-27T03:01:32.414Z,-2.80
2018-02-27T03:04:00.937Z,-2.80
2018-02-27T03:06:29.456Z,-2.80
2018-02-27T03:08:57.722Z,-2.80
2018-02-27T03:11:26.258Z,-2.80
2018-02-27T03:13:55.023Z,-2.80
2018-02-27T03:16:23.568Z,-2.70
2018-02-27T03:18:52.097Z,-2.80
2018-02-27T03:21:20.661Z,-2.80
2018-02-27T03:23:49.182Z,-2.80
2018-02-27T03:26:17.723Z,-2.80
2018-02-27T03:28:46.263Z,-2.80
2018-02-27T03:31:15.255Z,-2.90
2018-02-27T03:33:43.790Z,-2.90
2018-02-27T03:36:12.829Z,-2.90
2018-02-27T03:38:41.372Z,-2.90
2018-02-27T03:41:09.937Z,-2.90
2018-02-27T03:43:38.205Z,-3.00
2018-02-27T03:46:06.761Z,-3.00
2018-02-27T03:48:35.286Z,-3.10
2018-02-27T03:51:03.804Z,-3.10
2018-02-27T03:53:32.350Z,-3.10
2018-02-27T03:56:00.895Z,-3.20
2018-02-27T03:58:29.418Z,-3.10
2018-02-27T04:00:57.701Z,-3.20
2018-02-27T04:03:26.224Z,-3.20
2018-02-27T04:05:54.781Z,-3.30
2018-02-27T04:08:23.324Z,-3.40
2018-02-27T04:10:51.848Z,-3.40
2018-02-27T04:13:20.412Z,-3.40
2018-02-27T04:15:49.002Z,-3.40
2018-02-27T04:18:17.270Z,-3.50
2018-02-27T04:20:45.831Z,-3.60
2018-02-27T04:23:14.361Z,-3.50
2018-02-27T04:25:43.643Z,-3.70
2018-02-27T04:28:12.200Z,-3.70
2018-02-27T04:30:40.724Z,-3.70
2018-02-27T04:33:09.262Z,-3.80
2018-02-27T04:35:37.790Z,-3.70
2018-02-27T04:38:06.349Z,-3.70
2018-02-27T04:40:34.882Z,-3.80
2018-02-27T04:43:03.416Z,-3.80
2018-02-27T04:45:31.951Z,-3.80
2018-02-27T04:48:00.480Z,-3.90
2018-02-27T04:50:29.050Z,-3.80
2018-02-27T04:52:57.572Z,-3.90
2018-02-27T04:55:26.118Z,-3.80
2018-02-27T04:57:54.696Z,-3.90
2018-02-27T05:00:23.239Z,-4.00
2018-02-27T05:02:51.781Z,-4.00
2018-02-27T05:05:21.113Z,-4.00
2018-02-27T05:07:49.641Z,-4.10
2018-02-27T05:10:18.195Z,-4.10
2018-02-27T05:12:46.752Z,-4.10
2018-02-27T05:15:15.286Z,-4.10
2018-02-27T05:17:43.829Z,-4.10
2018-02-27T05:20:12.387Z,-4.00
2018-02-27T05:22:41.113Z,-4.00
2018-02-27T05:25:09.649Z,-4.10
2018-02-27T05:27:38.190Z,-4.20
2018-02-27T05:30:06.502Z,-4.30
2018-02-27T05:32:34.774Z,-4.30
2018-02-27T05:35:03.313Z,-4.20
2018-02-27T05:37:31.598Z,-4.30
2018-02-27T05:40:00.121Z,-4.40
2018-02-27T05:42:28.373Z,-4.50
2018-02-27T05:44:56.912Z,-4.50
2018-02-27T05:47:25.458Z,-4.50
2018-02-27T05:49:54.096Z,-4.40
2018-02-27T05:52:22.653Z,-4.60
2018-02-27T05:54:51.175Z,-4.60
2018-02-27T05:57:19.737Z,-4.60
2018-02-27T05:59:48.290Z,-4.60
2018-02-27T06:02:16.828Z,-4.60
2018-02-27T06:04:45.386Z,-4.60
2018-02-27T06:07:13.920Z,-4.60
2018-02-27T06:09:42.455Z,-4.50
2018-02-27T06:12:11.018Z,-4.80
2018-02-27T06:14:40.332Z,-4.80
2018-02-27T06:17:08.890Z,-4.80
2018-02-27T06:19:37.449Z,-4.80
2018-02-27T06:22:05.998Z,-4.90
2018-02-27T06:24:34.738Z,-4.80
2018-02-27T06:27:03.292Z,-4.70
2018-02-27T06:29:31.849Z,-4.80
2018-02-27T06:32:00.377Z,-4.80
2018-02-27T06:34:28.900Z,-4.70
2018-02-27T06:36:57.466Z,-4.70
2018-02-27T06:39:26.000Z,-4.70
2018-02-27T06:41:54.536Z,-4.70
2018-02-27T06:44:23.069Z,-4.80
2018-02-27T06:46:51.627Z,-4.70
2018-02-27T06:49:20.176Z,-4.80
2018-02-27T06:51:48.728Z,-4.90
2018-02-27T06:54:18.027Z,-4.90
2018-02-27T06:56:46.562Z,-4.90
2018-02-27T06:59:15.091Z,-4.80
2018-02-27T07:01:43.621Z,-4.90
2018-02-27T07:04:12.168Z,-4.70
2018-02-27T07:06:40.708Z,-4.60
2018-02-27T07:09:09.261Z,-4.60
2018-02-27T07:11:37.856Z,-4.50
2018-02-27T07:14:07.157Z,-4.30
2018-02-27T07:16:35.693Z,-4.40
2018-02-27T07:19:04.229Z,-4.30
2018-02-27T07:21:32.772Z,-4.30
2018-02-27T07:24:01.890Z,-4.10
2018-02-27T07:26:30.915Z,-4.20
2018-02-27T07:28:59.441Z,-4.20
2018-02-27T07:31:28.042Z,-4.10
2018-02-27T07:33:56.599Z,-4.00
2018-02-27T07:36:25.191Z,-4.00
2018-02-27T07:38:53.721Z,-3.90
2018-02-27T07:41:22.263Z,-3.90
2018-02-27T07:43:50.812Z,-3.80
2018-02-27T07:46:19.359Z,-3.80
2018-02-27T07:48:47.913Z,-3.70
2018-02-27T07:51:16.486Z,-3.60
2018-02-27T07:53:45.073Z,-3.60
2018-02-27T07:56:14.447Z,-3.50
2018-02-27T07:58:42.725Z,-3.50
2018-02-27T08:01:11.006Z,-3.30
2018-02-27T08:03:39.414Z,-3.40
2018-02-27T08:06:07.968Z,-3.30
2018-02-27T08:08:36.525Z,-3.20
2018-02-27T08:11:05.072Z,-3.10
2018-02-27T08:13:33.612Z,-3.10
2018-02-27T08:16:02.168Z,-3.00
2018-02-27T08:18:30.559Z,-2.90
2018-02-27T08:20:59.102Z,-2.80
2018-02-27T08:23:28.421Z,-2.50
2018-02-27T08:25:56.800Z,-2.50
2018-02-27T08:28:25.361Z,-2.50
2018-02-27T08:30:54.018Z,-2.30
2018-02-27T08:33:22.585Z,-2.40
2018-02-27T08:35:51.893Z,-2.50
2018-02-27T08:38:20.237Z,-2.50
2018-02-27T08:40:48.542Z,-2.50
2018-02-27T08:43:17.134Z,-2.30
2018-02-27T08:45:45.926Z,-2.20
2018-02-27T08:48:14.943Z,-2.30
2018-02-27T08:50:43.219Z,-2.40
2018-02-27T08:53:11.682Z,-2.40
2018-02-27T08:55:40.153Z,-2.60
2018-02-27T08:58:09.198Z,-2.70
2018-02-27T09:00:37.512Z,-2.70
2018-02-27T09:03:06.058Z,-2.70
2018-02-27T09:05:34.316Z,-2.80
2018-02-27T09:08:02.622Z,-2.90
2018-02-27T09:10:30.882Z,-2.80
2018-02-27T09:12:59.451Z,-2.80
2018-02-27T09:15:27.725Z,-3.00
2018-02-27T09:17:55.998Z,-2.90
2018-02-27T09:20:24.587Z,-2.90
2018-02-27T09:22:53.319Z,-2.90
2018-02-27T09:25:21.869Z,-3.00
2018-02-27T09:27:50.144Z,-2.90
2018-02-27T09:30:18.711Z,-2.70
2018-02-27T09:32:47.242Z,-2.70
2018-02-27T09:35:15.811Z,-2.60
2018-02-27T09:37:44.345Z,-2.30
2018-02-27T09:40:13.678Z,-2.10
2018-02-27T09:42:41.958Z,-2.10
2018-02-27T09:45:10.272Z,-2.10
2018-02-27T09:47:38.561Z,-2.40
2018-02-27T09:50:07.143Z,-2.30
2018-02-27T09:52:35.688Z,-2.50
2018-02-27T09:55:04.213Z,-2.50
2018-02-27T09:57:32.761Z,-2.60
2018-02-27T10:00:01.289Z,-2.40
2018-02-27T10:02:30.362Z,-2.40
2018-02-27T10:04:58.926Z,-2.40
2018-02-27T10:07:27.210Z,-2.20
2018-02-27T10:09:55.771Z,-2.10
2018-02-27T10:12:24.049Z,-2.00
2018-02-27T10:14:52.429Z,-2.00
2018-02-27T10:17:20.712Z,-1.80
2018-02-27T10:19:49.264Z,-1.80
2018-02-27T10:22:17.544Z,-1.80
2018-02-27T10:24:45.982Z,-1.80
2018-02-27T10:27:14.387Z,-1.60
2018-02-27T10:29:42.965Z,-1.70
2018-02-27T10:32:11.139Z,-1.90
2018-02-27T10:34:39.537Z,-1.70
2018-02-27T10:37:10.231Z,-1.80
2018-02-27T10:39:38.792Z,-1.80
2018-02-27T10:42:06.884Z,-1.40
2018-02-27T10:44:35.174Z,-0.80
2018-02-27T10:47:03.467Z,-1.20
2018-02-27T10:49:31.562Z,-0.90
2018-02-27T10:51:59.827Z,-0.40
2018-02-27T10:54:28.116Z,-0.40
2018-02-27T10:56:56.382Z,-0.10
2018-02-27T10:59:24.989Z,-0.30
2018-02-27T11:01:56.086Z,-0.50
2018-02-27T11:04:24.588Z,-0.20
2018-02-27T11:06:53.626Z,-0.40
2018-02-27T11:09:21.900Z,-0.50
2018-02-27T11:11:50.205Z,-0.90
2018-02-27T11:14:18.507Z,-1.30
2018-02-27T11:16:46.797Z,-1.40
2018-02-27T11:19:15.074Z,-1.00
2018-02-27T11:21:43.359Z,-0.70
2018-02-27T11:24:11.623Z,-1.00
2018-02-27T11:26:41.445Z,-0.10
2018-02-27T11:29:09.766Z,-0.10
2018-02-27T11:31:38.070Z,-0.60
2018-02-27T11:34:06.332Z,-0.70
2018-02-27T11:36:34.641Z,-0.30
2018-02-27T11:39:02.921Z,-0.80
2018-02-27T11:41:31.173Z,-0.60
2018-02-27T11:43:59.458Z,-0.40
2018-02-27T11:46:27.750Z,-0.40
2018-02-27T11:48:56.040Z,-0.30
2018-02-27T11:51:24.345Z,-0.40
2018-02-27T11:53:52.657Z,-0.40
2018-02-27T11:56:21.704Z,-0.30
2018-02-27T11:58:50.764Z,-0.40
2018-02-27T12:01:19.041Z,-0.40
2018-02-27T12:03:48.078Z,-0.30
2018-02-27T12:06:16.374Z,-0.30
2018-02-27T12:08:44.650Z,-0.30
2018-02-27T12:11:12.937Z,-0.40
2018-02-27T12:13:41.232Z,-0.50
2018-02-27T12:16:09.545Z,-0.50
2018-02-27T12:18:37.816Z,-0.30
2018-02-27T12:21:06.096Z,-0.50
2018-02-27T12:23:34.380Z,-0.20
2018-02-27T12:26:02.668Z,-0.50
2018-02-27T12:28:30.950Z,-0.40
2018-02-27T12:30:59.461Z,-0.40
2018-02-27T12:33:28.537Z,-0.30
2018-02-27T12:35:57.567Z,-0.30
2018-02-27T12:38:25.839Z,-0.30
2018-02-27T12:40:54.088Z,-0.10
2018-02-27T12:43:22.369Z,-0.20
2018-02-27T12:45:50.646Z,-0.30
2018-02-27T12:48:18.950Z,0.20
2018-02-27T12:50:48.004Z,0.10
2018-02-27T12:53:16.280Z,0.10
2018-02-27T12:55:44.546Z,0.00
2018-02-27T12:58:12.842Z,0.10
2018-02-27T13:00:41.303Z,-0.10
2018-02-27T13:03:09.560Z,-0.10
2018-02-27T13:05:37.842Z,0.10
2018-02-27T13:08:06.118Z,-0.20
2018-02-27T13:10:34.397Z,-0.10
2018-02-27T13:13:02.653Z,0.00
2018-02-27T13:15:30.904Z,-0.50
2018-02-27T13:17:59.221Z,-0.30
2018-02-27T13:20:27.488Z,-0.20
2018-02-27T13:22:55.763Z,-0.40
2018-02-27T13:25:24.115Z,-0.10
2018-02-27T13:27:52.567Z,-0.70
2018-02-27T13:30:21.606Z,0.10
2018-02-27T13:32:49.911Z,0.10
2018-02-27T13:35:18.224Z,0.20
2018-02-27T13:37:46.498Z,-0.10
2018-02-27T13:40:14.768Z,0.10
2018-02-27T13:42:43.067Z,0.00
2018-02-27T13:45:11.331Z,0.30
2018-02-27T13:47:39.610Z,0.40
2018-02-27T13:50:07.899Z,0.30
2018-02-27T13:52:36.175Z,0.40
2018-02-27T13:55:04.456Z,0.60
2018-02-27T13:57:32.744Z,0.30
2018-02-27T14:00:01.866Z,0.50
2018-02-27T14:02:29.926Z,0.50
2018-02-27T14:04:58.197Z,0.30
2018-02-27T14:07:26.301Z,0.00
2018-02-27T14:09:54.691Z,-0.10
2018-02-27T14:12:23.009Z,0.20
2018-02-27T14:14:51.324Z,0.40
2018-02-27T14:17:19.594Z,0.40
2018-02-27T14:19:47.850Z,0.80
2018-02-27T14:22:16.141Z,0.60
2018-02-27T14:24:44.409Z,0.50
2018-02-27T14:27:12.696Z,0.40
2018-02-27T14:29:40.959Z,0.70
2018-02-27T14:32:09.235Z,0.30
2018-02-27T14:34:37.544Z,0.10
2018-02-27T14:37:05.864Z,-0.30
2018-02-27T14:39:34.142Z,-0.40
2018-02-27T14:42:03.423Z,-0.30
2018-02-27T14:44:31.701Z,0.00
2018-02-27T14:46:59.966Z,0.40
2018-02-27T14:49:28.229Z,0.20
2018-02-27T14:51:56.530Z,0.40
2018-02-27T14:54:24.792Z,0.30
2018-02-27T14:56:53.072Z,0.20
2018-02-27T14:59:21.329Z,-0.10
2018-02-27T15:01:49.602Z,0.00
2018-02-27T15:04:17.893Z,0.20
2018-02-27T15:06:46.001Z,0.20
2018-02-27T15:09:14.311Z,0.10
2018-02-27T15:11:42.725Z,0.10
2018-02-27T15:14:11.236Z,0.30
2018-02-27T15:16:39.504Z,0.50
2018-02-27T15:19:07.774Z,0.40
2018-02-27T15:21:36.036Z,0.50
2018-02-27T15:24:04.319Z,0.60
2018-02-27T15:26:32.611Z,0.40
2018-02-27T15:29:01.660Z,0.30
2018-02-27T15:31:29.958Z,0.30
2018-02-27T15:33:58.234Z,0.50
2018-02-27T15:36:26.515Z,0.50
2018-02-27T15:38:54.870Z,0.40
2018-02-27T15:41:23.295Z,0.00
2018-02-27T15:43:51.587Z,-0.30
2018-02-27T15:46:20.004Z,-0.50
2018-02-27T15:48:48.027Z,-0.60
2018-02-27T15:51:17.127Z,-0.70
2018-02-27T15:53:45.410Z,-0.70
2018-02-27T15:56:13.727Z,-0.50
2018-02-27T15:58:42.007Z,-0.10
2018-02-27T16:01:11.149Z,0.00
2018-02-27T16:03:39.798Z,0.00
2018-02-27T16:06:08.059Z,-0.30
2018-02-27T16:08:36.362Z,-0.20
2018-02-27T16:11:04.696Z,-0.40
2018-02-27T16:13:33.928Z,-0.60
2018-02-27T16:16:02.214Z,-0.60
2018-02-27T16:18:30.487Z,-0.50
2018-02-27T16:20:58.762Z,-0.60
2018-02-27T16:23:28.575Z,-0.90
2018-02-27T16:25:56.848Z,-0.90
2018-02-27T16:28:25.168Z,-0.90
2018-02-27T16:30:53.639Z,-0.90
2018-02-27T16:33:22.702Z,-1.10
2018-02-27T16:35:50.991Z,-1.20
2018-02-27T16:38:19.269Z,-1.20
2018-02-27T16:40:47.569Z,-1.30
2018-02-27T16:43:15.847Z,-1.30
2018-02-27T16:45:44.583Z,-1.30
2018-02-27T16:48:13.475Z,-1.40
2018-02-27T16:50:41.750Z,-1.40
2018-02-27T16:53:10.020Z,-1.60
2018-02-27T16:55:38.298Z,-1.70
2018-02-27T16:58:06.624Z,-1.80
2018-02-27T17:00:35.003Z,-1.90
2018-02-27T17:03:03.293Z,-2.00
2018-02-27T17:05:31.591Z,-2.00
2018-02-27T17:08:00.149Z,-2.10
2018-02-27T17:10:28.432Z,-2.10
2018-02-27T17:12:56.710Z,-2.20
2018-02-27T17:15:25.036Z,-2.10
2018-02-27T17:17:53.313Z,-2.20
2018-02-27T17:20:21.616Z,-2.30
2018-02-27T17:22:50.413Z,-2.30
2018-02-27T17:25:19.167Z,-2.20
2018-02-27T17:27:47.755Z,-2.40
2018-02-27T17:30:16.286Z,-2.40
2018-02-27T17:32:44.816Z,-2.30
2018-02-27T17:35:13.384Z,-2.40
2018-02-27T17:37:41.917Z,-2.50
2018-02-27T17:40:10.468Z,-2.50
2018-02-27T17:42:39.048Z,-2.60
2018-02-27T17:45:07.801Z,-2.60
2018-02-27T17:47:36.356Z,-2.70
2018-02-27T17:50:04.907Z,-2.70
2018-02-27T17:52:33.180Z,-2.80
2018-02-27T17:55:01.744Z,-2.80
2018-02-27T17:57:30.269Z,-2.80
2018-02-27T17:59:59.598Z,-2.80
2018-02-27T18:02:28.133Z,-2.80
2018-02-27T18:04:56.685Z,-2.80
2018-02-27T18:07:24.936Z,-2.90
2018-02-27T18:09:53.486Z,-2.90
2018-02-27T18:12:22.042Z,-2.90
2018-02-27T18:14:50.596Z,-2.90
2018-02-27T18:17:18.890Z,-3.00
2018-02-27T18:19:48.227Z,-3.00
2018-02-27T18:22:16.805Z,-3.10
2018-02-27T18:24:45.325Z,-3.00
2018-02-27T18:27:13.619Z,-3.10
2018-02-27T18:29:41.961Z,-3.10
2018-02-27T18:32:10.503Z,-3.20
2018-02-27T18:34:38.854Z,-3.20
2018-02-27T18:37:07.430Z,-3.20
2018-02-27T18:39:35.961Z,-3.20
2018-02-27T18:42:04.492Z,-3.20
2018-02-27T18:44:33.137Z,-3.20
2018-02-27T18:47:01.723Z,-3.20
2018-02-27T18:49:30.334Z,-3.20
2018-02-27T18:51:58.864Z,-3.30
2018-02-27T18:54:27.414Z,-3.30
2018-02-27T18:56:55.990Z,-3.40
2018-02-27T18:59:24.571Z,-3.40
2018-02-27T19:01:53.882Z,-3.40
2018-02-27T19:04:22.428Z,-3.40
2018-02-27T19:06:50.983Z,-3.40
2018-02-27T19:09:19.531Z,-3.40
2018-02-27T19:11:47.808Z,-3.50
2018-02-27T19:14:16.372Z,-3.50
2018-02-27T19:16:44.992Z,-3.50
2018-02-27T19:19:13.364Z,-3.40
2018-02-27T19:21:41.904Z,-3.40
2018-02-27T19:24:10.048Z,-3.40
2018-02-27T19:26:38.825Z,-3.40
2018-02-27T19:29:07.359Z,-3.30
2018-02-27T19:31:35.971Z,-3.20
2018-02-27T19:34:04.496Z,-3.30
2018-02-27T19:36:33.044Z,-3.30
2018-02-27T19:39:01.681Z,-3.50
2018-02-27T19:41:30.981Z,-3.60
2018-02-27T19:43:59.555Z,-3.60
2018-02-27T19:46:28.102Z,-3.60
2018-02-27T19:48:56.831Z,-3.70
2018-02-27T19:51:25.374Z,-3.70
2018-02-27T19:53:53.925Z,-3.70
2018-02-27T19:56:22.460Z,-3.80
2018-02-27T19:58:51.015Z,-3.90
2018-02-27T20:01:19.571Z,-3.90
2018-02-27T20:03:48.097Z,-3.90
2018-02-27T20:06:16.697Z,-3.90
2018-02-27T20:08:45.237Z,-3.90
2018-02-27T20:11:13.548Z,-3.90
2018-02-27T20:13:42.114Z,-3.90
2018-02-27T20:16:10.563Z,-3.90
2018-02-27T20:18:39.887Z,-3.90
2018-02-27T20:21:08.464Z,-3.90
2018-02-27T20:23:42.510Z,-3.80
2018-02-27T20:40:42.654Z,-3.90
2018-02-27T20:43:11.047Z,-4.00
2018-02-27T20:45:39.455Z,-4.00
2018-02-27T20:48:07.813Z,-4.10
2018-02-27T20:50:37.172Z,-4.10
2018-02-27T20:53:05.507Z,-4.10
2018-02-27T20:55:35.266Z,-4.10
2018-02-27T20:58:03.805Z,-4.10
2018-02-27T21:00:32.064Z,-4.10
2018-02-27T21:08:47.847Z,-4.20
2018-02-27T21:11:16.628Z,-4.10
2018-02-27T21:13:46.426Z,-4.10
2018-02-27T21:16:15.002Z,-4.10
2018-02-27T21:18:43.387Z,-4.20
2018-02-27T21:21:11.735Z,-4.10
2018-02-27T21:23:40.072Z,-4.20
2018-02-27T21:26:08.726Z,-4.20
2018-02-27T21:28:38.709Z,-4.30
2018-02-27T21:48:25.291Z,-4.20
2018-02-27T21:50:53.950Z,-4.20
2018-02-27T21:53:22.549Z,-4.20
2018-02-27T21:55:51.774Z,-4.20
2018-02-27T21:58:20.420Z,-4.30
2018-02-27T22:00:48.824Z,-4.30
2018-02-27T22:03:17.174Z,-4.30
2018-02-27T22:05:45.846Z,-4.30
2018-02-27T22:08:14.131Z,-4.30
2018-02-27T22:28:01.169Z,-4.30
2018-02-27T22:30:29.747Z,-4.30
2018-02-27T22:32:58.289Z,-4.30
2018-02-27T22:35:26.568Z,-4.30
2018-02-27T22:37:55.102Z,-4.30
2018-02-27T22:40:23.642Z,-4.30
2018-02-27T22:42:52.194Z,-4.30
2018-02-27T22:45:21.533Z,-4.20
2018-02-27T22:47:50.093Z,-4.30
2018-02-27T23:19:10.377Z,-4.60
2018-02-27T23:21:38.656Z,-4.60
2018-02-27T23:24:12.787Z,-4.60
2018-02-27T23:26:42.881Z,-4.60
2018-02-27T23:29:14.906Z,-4.70
2018-02-27T23:31:46.656Z,-4.70
2018-02-27T23:34:30.929Z,-4.70
2018-02-27T23:36:59.484Z,-4.80
2018-02-27T23:56:46.897Z,-4.70
2018-02-27T23:59:15.151Z,-4.80
